sensor_id;sensor_type;location;lat;lon;timestamp;temperature;humidity
1888;DHT22;944;51.574;6.980;2023-06-22T01:40:09;20.30;99.90
1888;DHT22;944;51.574;6.980;2023-06-22T01:42:37;20.30;99.90
1888;DHT22;944;51.574;6.980;2023-06-22T01:45:06;20.30;99.90
1888;DHT22;944;51.574;6.980;2023-06-22T01:47:34;20.30;99.90
1888;DHT22;944;51.574;6.980;2023-06-22T01:50:01;20.20;99.90
1888;DHT22;944;51.574;6.980;2023-06-22T01:52:29;20.20;99.90
1888;DHT22;944;51.574;6.980;2023-06-22T01:54:58;20.10;99.90
1888;DHT22;944;51.574;6.980;2023-06-22T01:57:27;20.00;99.90
1888;DHT22;944;51.574;6.980;2023-06-22T01:59:59;20.00;99.90
1888;DHT22;944;51.574;6.980;2023-06-22T02:02:32;20.00;99.90
1888;DHT22;944;51.574;6.980;2023-06-22T02:05:06;20.00;99.90
1888;DHT22;944;51.574;6.980;2023-06-22T02:07:42;20.00;99.90
1888;DHT22;944;51.574;6.980;2023-06-22T02:10:14;20.00;99.90
1888;DHT22;944;51.574;6.980;2023-06-22T02:12:44;19.90;99.90
1888;DHT22;944;51.574;6.980;2023-06-22T02:15:13;20.10;99.90
1888;DHT22;944;51.574;6.980;2023-06-22T02:17:42;19.90;99.90
1888;DHT22;944;51.574;6.980;2023-06-22T02:20:12;19.90;99.90
1888;DHT22;944;51.574;6.980;2023-06-22T02:22:40;19.90;99.90
1888;DHT22;944;51.574;6.980;2023-06-22T02:25:10;19.90;99.90
1888;DHT22;944;51.574;6.980;2023-06-22T02:27:37;19.90;99.90
1888;DHT22;944;51.574;6.980;2023-06-22T02:30:08;19.80;99.90
1888;DHT22;944;51.574;6.980;2023-06-22T02:32:36;19.90;99.90
1888;DHT22;944;51.574;6.980;2023-06-22T02:35:08;19.80;99.90
1888;DHT22;944;51.574;6.980;2023-06-22T02:37:38;20.00;99.90
1888;DHT22;944;51.574;6.980;2023-06-22T02:40:08;20.00;99.90
1888;DHT22;944;51.574;6.980;2023-06-22T02:42:36;19.90;99.90
1888;DHT22;944;51.574;6.980;2023-06-22T02:45:05;19.90;99.90
1888;DHT22;944;51.574;6.980;2023-06-22T02:47:39;19.90;99.90
1888;DHT22;944;51.574;6.980;2023-06-22T02:50:07;20.00;99.90
1888;DHT22;944;51.574;6.980;2023-06-22T02:52:35;19.90;99.90
1888;DHT22;944;51.574;6.980;2023-06-22T02:55:02;19.90;99.90
1888;DHT22;944;51.574;6.980;2023-06-22T02:57:30;19.90;99.90
1888;DHT22;944;51.574;6.980;2023-06-22T02:59:57;19.80;99.90
1888;DHT22;944;51.574;6.980;2023-06-22T03:02:25;19.80;99.90
1888;DHT22;944;51.574;6.980;2023-06-22T03:04:53;19.80;99.90
1888;DHT22;944;51.574;6.980;2023-06-22T03:07:20;19.80;99.90
1888;DHT22;944;51.574;6.980;2023-06-22T03:09:47;19.80;99.90
1888;DHT22;944;51.574;6.980;2023-06-22T03:12:15;19.80;99.90
1888;DHT22;944;51.574;6.980;2023-06-22T03:14:42;19.80;99.90
1888;DHT22;944;51.574;6.980;2023-06-22T03:17:09;19.80;99.90
1888;DHT22;944;51.574;6.980;2023-06-22T03:19:38;19.80;99.90
1888;DHT22;944;51.574;6.980;2023-06-22T03:22:05;19.80;99.90
1888;DHT22;944;51.574;6.980;2023-06-22T03:24:33;19.80;99.90
1888;DHT22;944;51.574;6.980;2023-06-22T03:27:00;19.80;99.90
1888;DHT22;944;51.574;6.980;2023-06-22T03:29:30;19.80;99.90
1888;DHT22;944;51.574;6.980;2023-06-22T03:31:57;19.80;99.90
1888;DHT22;944;51.574;6.980;2023-06-22T03:34:24;19.70;99.90
1888;DHT22;944;51.574;6.980;2023-06-22T03:36:53;19.80;99.90
1888;DHT22;944;51.574;6.980;2023-06-22T03:39:21;19.80;99.90
1888;DHT22;944;51.574;6.980;2023-06-22T03:41:48;19.80;99.90
1888;DHT22;944;51.574;6.980;2023-06-22T03:44:15;19.70;99.90
1888;DHT22;944;51.574;6.980;2023-06-22T03:46:44;19.70;99.90
1888;DHT22;944;51.574;6.980;2023-06-22T03:49:11;19.60;99.90
1888;DHT22;944;51.574;6.980;2023-06-22T03:51:38;19.40;99.90
1888;DHT22;944;51.574;6.980;2023-06-22T03:54:12;19.60;99.90
1888;DHT22;944;51.574;6.980;2023-06-22T03:57:01;19.60;99.90
1888;DHT22;944;51.574;6.980;2023-06-22T03:59:28;19.70;99.90
1888;DHT22;944;51.574;6.980;2023-06-22T04:01:56;19.70;99.90
1888;DHT22;944;51.574;6.980;2023-06-22T04:04:27;19.80;99.90
1888;DHT22;944;51.574;6.980;2023-06-22T04:06:55;19.60;99.90
1888;DHT22;944;51.574;6.980;2023-06-22T04:09:23;19.60;99.90
1888;DHT22;944;51.574;6.980;2023-06-22T04:11:50;19.70;99.90
1888;DHT22;944;51.574;6.980;2023-06-22T04:14:17;19.80;99.90
1888;DHT22;944;51.574;6.980;2023-06-22T04:16:47;19.70;99.90
1888;DHT22;944;51.574;6.980;2023-06-22T04:19:16;19.70;99.90
1888;DHT22;944;51.574;6.980;2023-06-22T04:21:46;19.70;99.90
1888;DHT22;944;51.574;6.980;2023-06-22T04:24:14;19.80;99.90
1888;DHT22;944;51.574;6.980;2023-06-22T04:26:44;19.80;99.90
1888;DHT22;944;51.574;6.980;2023-06-22T04:29:13;19.80;99.90
1888;DHT22;944;51.574;6.980;2023-06-22T04:31:40;19.80;99.90
1888;DHT22;944;51.574;6.980;2023-06-22T04:34:08;20.00;99.90
1888;DHT22;944;51.574;6.980;2023-06-22T04:36:39;20.00;99.90
1888;DHT22;944;51.574;6.980;2023-06-22T04:39:08;20.10;99.90
1888;DHT22;944;51.574;6.980;2023-06-22T04:41:37;20.10;99.90
1888;DHT22;944;51.574;6.980;2023-06-22T04:44:14;20.10;99.90
1888;DHT22;944;51.574;6.980;2023-06-22T04:46:49;20.10;99.90
1888;DHT22;944;51.574;6.980;2023-06-22T04:49:20;20.30;99.90
1888;DHT22;944;51.574;6.980;2023-06-22T04:51:48;20.50;99.90
1888;DHT22;944;51.574;6.980;2023-06-22T04:54:17;20.50;99.90
1888;DHT22;944;51.574;6.980;2023-06-22T04:56:44;20.60;99.90
1888;DHT22;944;51.574;6.980;2023-06-22T04:59:13;20.70;99.90
1888;DHT22;944;51.574;6.980;2023-06-22T05:01:43;20.70;99.90
1888;DHT22;944;51.574;6.980;2023-06-22T05:04:10;20.70;99.90
1888;DHT22;944;51.574;6.980;2023-06-22T05:06:40;20.70;99.90
1888;DHT22;944;51.574;6.980;2023-06-22T05:09:07;20.60;99.90
1888;DHT22;944;51.574;6.980;2023-06-22T06:07:41;20.60;99.90
1888;DHT22;944;51.574;6.980;2023-06-22T06:10:15;20.60;99.90
1888;DHT22;944;51.574;6.980;2023-06-22T06:12:43;20.60;99.90
1888;DHT22;944;51.574;6.980;2023-06-22T06:15:13;20.70;99.90
1888;DHT22;944;51.574;6.980;2023-06-22T06:17:52;20.70;99.90
1888;DHT22;944;51.574;6.980;2023-06-22T06:51:09;19.80;99.90
1888;DHT22;944;51.574;6.980;2023-06-22T06:53:39;19.70;99.90
1888;DHT22;944;51.574;6.980;2023-06-22T06:56:06;19.60;99.90
1888;DHT22;944;51.574;6.980;2023-06-22T06:58:41;19.50;99.90
1888;DHT22;944;51.574;6.980;2023-06-22T07:01:13;19.50;99.90
1888;DHT22;944;51.574;6.980;2023-06-22T07:11:41;19.40;99.90
1888;DHT22;944;51.574;6.980;2023-06-22T07:26:46;19.60;99.90
1888;DHT22;944;51.574;6.980;2023-06-22T08:23:53;21.50;99.90
1888;DHT22;944;51.574;6.980;2023-06-22T10:31:53;24.80;99.90
1888;DHT22;944;51.574;6.980;2023-06-22T10:34:32;25.30;99.90
1888;DHT22;944;51.574;6.980;2023-06-22T10:40:39;25.60;99.90
1888;DHT22;944;51.574;6.980;2023-06-22T11:27:35;25.00;99.90
1888;DHT22;944;51.574;6.980;2023-06-22T11:30:26;24.90;99.90
1888;DHT22;944;51.574;6.980;2023-06-22T11:33:00;24.90;99.90
1888;DHT22;944;51.574;6.980;2023-06-22T11:35:30;24.60;99.90
1888;DHT22;944;51.574;6.980;2023-06-22T11:37:57;24.30;99.90
1888;DHT22;944;51.574;6.980;2023-06-22T11:40:24;24.10;99.90
1888;DHT22;944;51.574;6.980;2023-06-22T11:42:53;23.90;99.90
1888;DHT22;944;51.574;6.980;2023-06-22T11:45:23;23.90;99.90
1888;DHT22;944;51.574;6.980;2023-06-22T11:47:51;23.80;99.90
1888;DHT22;944;51.574;6.980;2023-06-22T11:50:22;23.50;99.90
1888;DHT22;944;51.574;6.980;2023-06-22T12:01:16;23.20;99.90
1888;DHT22;944;51.574;6.980;2023-06-22T12:08:07;22.70;99.90
1888;DHT22;944;51.574;6.980;2023-06-22T12:10:45;22.30;99.90
1888;DHT22;944;51.574;6.980;2023-06-22T12:13:15;21.90;99.90
1888;DHT22;944;51.574;6.980;2023-06-22T12:15:43;21.60;99.90
1888;DHT22;944;51.574;6.980;2023-06-22T12:18:12;21.40;99.90
1888;DHT22;944;51.574;6.980;2023-06-22T12:20:43;21.10;99.90
1888;DHT22;944;51.574;6.980;2023-06-22T12:23:21;20.90;99.90
1888;DHT22;944;51.574;6.980;2023-06-22T12:26:00;20.90;99.90
1888;DHT22;944;51.574;6.980;2023-06-22T12:28:51;20.80;99.90
1888;DHT22;944;51.574;6.980;2023-06-22T12:31:18;20.70;99.90
1888;DHT22;944;51.574;6.980;2023-06-22T12:33:48;20.70;99.90
1888;DHT22;944;51.574;6.980;2023-06-22T13:47:05;21.50;99.90
1888;DHT22;944;51.574;6.980;2023-06-22T16:33:43;19.80;99.90
1888;DHT22;944;51.574;6.980;2023-06-22T16:36:15;19.60;99.90
1888;DHT22;944;51.574;6.980;2023-06-22T16:38:44;19.60;99.90
1888;DHT22;944;51.574;6.980;2023-06-22T16:41:11;19.60;99.90
1888;DHT22;944;51.574;6.980;2023-06-22T16:43:49;19.50;99.90
1888;DHT22;944;51.574;6.980;2023-06-22T16:46:31;19.40;99.90
1888;DHT22;944;51.574;6.980;2023-06-22T16:52:48;19.30;99.90
1888;DHT22;944;51.574;6.980;2023-06-22T16:55:21;19.20;99.90
1888;DHT22;944;51.574;6.980;2023-06-22T19:00:17;19.00;99.90
1888;DHT22;944;51.574;6.980;2023-06-22T19:10:27;19.10;99.90
1888;DHT22;944;51.574;6.980;2023-06-22T20:00:22;17.80;99.90
1888;DHT22;944;51.574;6.980;2023-06-22T20:03:06;17.80;99.90
1888;DHT22;944;51.574;6.980;2023-06-22T20:05:39;17.70;99.90
1888;DHT22;944;51.574;6.980;2023-06-22T20:08:19;17.60;99.90
1888;DHT22;944;51.574;6.980;2023-06-22T20:10:48;17.60;99.90
1888;DHT22;944;51.574;6.980;2023-06-22T20:13:18;17.40;99.90
1888;DHT22;944;51.574;6.980;2023-06-22T20:15:47;17.30;99.90
1888;DHT22;944;51.574;6.980;2023-06-22T20:18:17;17.30;99.90
1888;DHT22;944;51.574;6.980;2023-06-22T20:20:49;17.30;99.90
1888;DHT22;944;51.574;6.980;2023-06-22T20:23:22;17.20;99.90
1888;DHT22;944;51.574;6.980;2023-06-22T20:25:57;17.30;99.90
1888;DHT22;944;51.574;6.980;2023-06-22T20:28:40;17.10;99.90
1888;DHT22;944;51.574;6.980;2023-06-22T20:31:17;17.00;99.90
1888;DHT22;944;51.574;6.980;2023-06-22T20:34:08;16.80;99.90
1888;DHT22;944;51.574;6.980;2023-06-22T20:36:53;16.90;99.90
1888;DHT22;944;51.574;6.980;2023-06-22T20:39:24;16.90;99.90
1888;DHT22;944;51.574;6.980;2023-06-22T20:41:57;16.80;99.90
1888;DHT22;944;51.574;6.980;2023-06-22T20:44:30;16.80;99.90
1888;DHT22;944;51.574;6.980;2023-06-22T20:47:06;16.70;99.90
1888;DHT22;944;51.574;6.980;2023-06-22T20:49:53;16.70;99.90
1888;DHT22;944;51.574;6.980;2023-06-22T20:52:27;16.70;99.90
1888;DHT22;944;51.574;6.980;2023-06-22T20:55:35;16.70;99.90
1888;DHT22;944;51.574;6.980;2023-06-22T20:58:36;16.70;99.90
1888;DHT22;944;51.574;6.980;2023-06-22T21:01:04;16.60;99.90
1888;DHT22;944;51.574;6.980;2023-06-22T21:03:37;16.50;99.90
